createdAt,value
2023-10-21T00:03:21.146Z,1.80
2023-10-21T00:08:24.207Z,1.73
2023-10-21T00:13:27.056Z,1.42
2023-10-21T00:18:30.515Z,1.55
2023-10-21T00:23:34.002Z,1.63
2023-10-21T00:28:37.112Z,1.23
2023-10-21T00:33:40.735Z,1.40
2023-10-21T00:38:43.980Z,1.27
2023-10-21T00:43:47.062Z,1.50
2023-10-21T00:48:51.120Z,1.23
2023-10-21T00:58:58.035Z,1.23
2023-10-21T01:04:01.390Z,1.40
2023-10-21T01:09:04.795Z,1.30
2023-10-21T01:14:08.969Z,1.20
2023-10-21T01:19:15.227Z,1.67
2023-10-21T01:24:18.942Z,1.30
2023-10-21T01:29:22.330Z,1.33
2023-10-21T01:34:25.647Z,1.48
2023-10-21T01:39:28.992Z,1.40
2023-10-21T01:44:31.958Z,1.35
2023-10-21T01:49:35.053Z,1.33
2023-10-21T01:54:38.758Z,1.33
2023-10-21T01:59:42.491Z,1.08
2023-10-21T02:04:45.644Z,1.52
2023-10-21T02:09:49.830Z,1.35
2023-10-21T02:14:53.246Z,1.42
2023-10-21T02:20:00.407Z,1.20
2023-10-21T02:25:12.947Z,1.80
2023-10-21T02:30:18.512Z,1.40
2023-10-21T02:35:22.469Z,1.20
2023-10-21T02:40:25.473Z,1.50
2023-10-21T02:45:28.795Z,1.15
2023-10-21T02:50:31.800Z,1.48
2023-10-21T02:55:34.937Z,1.40
2023-10-21T03:00:37.876Z,1.60
2023-10-21T03:05:41.428Z,2.80
2023-10-21T03:10:44.507Z,1.60
2023-10-21T03:15:47.385Z,1.63
2023-10-21T03:20:54.257Z,2.95
2023-10-21T03:26:02.624Z,1.63
2023-10-21T03:31:05.752Z,1.77
2023-10-21T03:36:09.137Z,1.85
2023-10-21T03:41:13.714Z,1.67
2023-10-21T03:46:16.729Z,1.58
2023-10-21T03:51:20.425Z,1.67
2023-10-21T03:56:23.455Z,1.30
2023-10-21T04:01:26.540Z,1.38
2023-10-21T04:06:29.731Z,1.60
2023-10-21T04:11:32.775Z,1.50
2023-10-21T04:16:35.956Z,1.73
2023-10-21T04:21:39.031Z,1.52
2023-10-21T04:26:42.307Z,1.25
2023-10-21T04:31:45.538Z,1.40
2023-10-21T04:36:48.462Z,1.30
2023-10-21T04:41:51.473Z,1.38
2023-10-21T04:46:54.648Z,1.75
2023-10-21T04:51:57.630Z,1.73
2023-10-21T04:57:00.936Z,1.65
2023-10-21T05:02:05.778Z,1.88
2023-10-21T05:07:09.254Z,1.77
2023-10-21T05:12:12.768Z,2.00
2023-10-21T05:17:16.164Z,1.83
2023-10-21T05:22:19.877Z,2.03
2023-10-21T05:27:23.440Z,2.22
2023-10-21T05:32:26.329Z,2.50
2023-10-21T05:37:29.747Z,2.55
2023-10-21T05:42:34.443Z,3.17
2023-10-21T05:47:37.764Z,2.80
2023-10-21T05:52:40.983Z,2.83
2023-10-21T05:57:44.378Z,6.72
2023-10-21T06:02:47.485Z,2.97
2023-10-21T06:07:50.549Z,3.38
2023-10-21T06:12:53.570Z,3.80
2023-10-21T06:17:56.623Z,3.40
2023-10-21T06:22:59.838Z,3.47
2023-10-21T06:28:03.001Z,13.98
2023-10-21T06:33:06.236Z,5.55
2023-10-21T06:38:09.858Z,2.63
2023-10-21T06:43:13.259Z,2.90
2023-10-21T06:48:16.633Z,2.80
2023-10-21T06:53:19.864Z,12.75
2023-10-21T06:58:23.123Z,9.50
2023-10-21T07:03:26.776Z,3.25
2023-10-21T07:08:29.936Z,3.90
2023-10-21T07:13:32.931Z,3.60
2023-10-21T07:18:35.946Z,3.90
2023-10-21T07:23:39.211Z,4.32
2023-10-21T07:28:42.625Z,5.22
2023-10-21T07:33:45.653Z,11.50
2023-10-21T07:38:49.027Z,4.38
2023-10-21T07:43:51.988Z,4.10
2023-10-21T07:48:55.011Z,5.28
2023-10-21T07:53:57.996Z,4.47
2023-10-21T07:59:01.012Z,3.95
2023-10-21T08:04:04.400Z,4.00
2023-10-21T08:09:09.776Z,3.17
2023-10-21T08:14:13.876Z,3.40
2023-10-21T08:19:18.733Z,3.13
2023-10-21T08:24:22.223Z,3.80
2023-10-21T08:29:25.302Z,3.13
2023-10-21T08:34:28.381Z,3.03
2023-10-21T08:39:32.325Z,2.95
2023-10-21T08:44:35.507Z,3.22
2023-10-21T08:49:40.618Z,3.38
2023-10-21T08:54:47.565Z,3.60
2023-10-21T08:59:53.807Z,4.07
2023-10-21T09:04:57.086Z,3.78
2023-10-21T09:10:13.052Z,4.03
2023-10-21T09:15:16.541Z,6.50
2023-10-21T09:20:23.584Z,5.70
2023-10-21T09:25:28.642Z,5.38
2023-10-21T09:30:32.319Z,5.95
2023-10-21T09:35:39.124Z,6.88
2023-10-21T09:40:44.949Z,6.75
2023-10-21T09:45:51.460Z,7.03
2023-10-21T09:50:58.430Z,6.68
2023-10-21T09:56:02.710Z,7.43
2023-10-21T10:01:07.412Z,8.18
2023-10-21T10:06:11.857Z,7.15
2023-10-21T10:11:17.141Z,6.72
2023-10-21T10:16:29.779Z,7.00
2023-10-21T10:21:35.605Z,6.88
2023-10-21T10:26:39.826Z,6.45
2023-10-21T10:31:49.162Z,6.22
2023-10-21T10:36:53.083Z,6.75
2023-10-21T10:41:59.838Z,6.80
2023-10-21T10:47:06.449Z,7.30
2023-10-21T10:52:09.784Z,8.23
2023-10-21T10:57:18.871Z,8.45
2023-10-21T11:02:26.250Z,9.45
2023-10-21T11:07:32.814Z,7.28
2023-10-21T11:12:36.199Z,8.57
2023-10-21T11:17:41.871Z,9.65
2023-10-21T11:22:46.927Z,10.88
2023-10-21T11:27:53.301Z,10.15
2023-10-21T11:32:57.371Z,10.15
2023-10-21T11:38:01.819Z,8.45
2023-10-21T11:43:15.902Z,8.25
2023-10-21T11:48:19.553Z,8.38
2023-10-21T11:58:46.377Z,9.40
2023-10-21T12:03:49.800Z,9.88
2023-10-21T12:09:15.352Z,7.90
2023-10-21T12:14:24.663Z,7.45
2023-10-21T12:20:01.105Z,7.43
2023-10-21T12:25:24.556Z,8.38
2023-10-21T12:30:48.136Z,8.82
2023-10-21T12:36:11.657Z,8.60
2023-10-21T12:41:27.653Z,8.85
2023-10-21T12:46:40.063Z,8.77
2023-10-21T12:51:43.939Z,8.70
2023-10-21T13:01:50.591Z,9.43
2023-10-21T13:06:55.305Z,12.10
2023-10-21T13:11:59.552Z,11.75
2023-10-21T13:17:03.227Z,13.43
2023-10-21T13:22:08.248Z,1.42
2023-10-21T13:27:11.732Z,0.50
2023-10-21T13:32:17.885Z,0.38
2023-10-21T13:37:23.908Z,0.60
2023-10-21T13:42:27.149Z,0.55
2023-10-21T13:47:30.807Z,0.73
2023-10-21T13:52:34.369Z,0.77
2023-10-21T13:57:37.873Z,0.60
2023-10-21T14:02:41.457Z,1.10
2023-10-21T14:07:44.906Z,0.50
2023-10-21T14:12:50.155Z,0.55
2023-10-21T14:17:53.395Z,0.47
2023-10-21T14:22:57.489Z,0.30
2023-10-21T14:28:02.431Z,0.40
2023-10-21T14:33:06.624Z,0.35
2023-10-21T14:43:15.627Z,0.55
2023-10-21T14:48:25.877Z,0.68
2023-10-21T14:58:32.529Z,0.60
2023-10-21T15:03:37.413Z,0.70
2023-10-21T15:08:43.055Z,0.65
2023-10-21T15:13:46.635Z,0.65
2023-10-21T15:18:51.803Z,0.70
2023-10-21T15:23:57.716Z,0.82
2023-10-21T15:29:01.319Z,0.70
2023-10-21T15:34:07.419Z,0.50
2023-10-21T15:39:20.656Z,0.60
2023-10-21T15:44:25.549Z,0.60
2023-10-21T15:49:31.162Z,0.60
2023-10-21T15:54:34.650Z,1.17
2023-10-21T15:59:38.351Z,0.80
2023-10-21T16:04:41.802Z,1.00
2023-10-21T16:09:46.070Z,0.90
2023-10-21T16:14:49.962Z,0.90
2023-10-21T16:19:53.411Z,0.60
2023-10-21T16:24:56.958Z,0.63
2023-10-21T16:30:01.775Z,0.52
2023-10-21T16:35:07.333Z,0.50
2023-10-21T16:40:11.980Z,0.32
2023-10-21T16:45:15.486Z,0.68
2023-10-21T16:50:20.943Z,0.82
2023-10-21T16:55:24.200Z,0.50
2023-10-21T17:00:28.960Z,0.40
2023-10-21T17:05:33.722Z,0.32
2023-10-21T17:10:37.289Z,0.40
2023-10-21T17:15:40.973Z,0.32
2023-10-21T17:20:44.899Z,0.22
2023-10-21T17:25:49.034Z,0.57
2023-10-21T17:30:53.461Z,0.38
2023-10-21T17:41:01.664Z,0.50
2023-10-21T17:46:06.130Z,0.57
2023-10-21T17:51:11.453Z,0.30
2023-10-21T17:56:15.062Z,0.43
2023-10-21T18:01:18.450Z,0.50
2023-10-21T18:06:21.881Z,0.60
2023-10-21T18:11:25.808Z,0.60
2023-10-21T18:16:29.595Z,0.60
2023-10-21T18:21:33.016Z,0.45
2023-10-21T18:26:36.441Z,0.50
2023-10-21T18:31:39.822Z,0.60
2023-10-21T18:36:43.428Z,0.52
2023-10-21T18:41:48.580Z,0.40
2023-10-21T18:46:52.056Z,0.70
2023-10-21T18:51:55.357Z,0.50
2023-10-21T18:56:58.885Z,1.20
2023-10-21T19:02:01.918Z,0.60
2023-10-21T19:07:06.143Z,0.40
2023-10-21T19:12:10.864Z,0.50
2023-10-21T19:17:14.405Z,0.40
2023-10-21T19:22:17.773Z,0.30
2023-10-21T19:27:21.035Z,0.38
2023-10-21T19:32:24.766Z,0.52
2023-10-21T19:37:27.940Z,0.43
2023-10-21T19:42:31.044Z,0.47
2023-10-21T19:47:34.216Z,0.43
2023-10-21T19:52:37.820Z,0.90
2023-10-21T19:57:41.064Z,0.65
2023-10-21T20:02:44.168Z,1.05
2023-10-21T20:07:47.809Z,0.73
2023-10-21T20:12:51.349Z,0.57
2023-10-21T20:17:54.498Z,1.20
2023-10-21T20:22:57.628Z,1.50
2023-10-21T20:28:00.939Z,1.52
2023-10-21T20:33:04.206Z,1.95
2023-10-21T20:38:07.307Z,1.63
2023-10-21T20:43:10.246Z,1.92
2023-10-21T20:48:13.613Z,0.80
2023-10-21T20:53:16.916Z,1.67
2023-10-21T20:58:20.084Z,2.60
2023-10-21T21:03:24.878Z,2.55
2023-10-21T21:08:28.111Z,2.88
2023-10-21T21:13:31.165Z,1.40
2023-10-21T21:18:34.134Z,1.02
2023-10-21T21:23:37.003Z,2.25
2023-10-21T21:28:39.942Z,2.53
2023-10-21T21:33:43.426Z,1.90
2023-10-21T21:38:46.620Z,1.90
2023-10-21T21:43:49.769Z,1.45
2023-10-21T21:48:52.812Z,2.10
2023-10-21T21:53:57.068Z,1.98
2023-10-21T21:59:04.165Z,1.40
2023-10-21T22:04:09.434Z,1.92
2023-10-21T22:09:15.422Z,2.45
2023-10-21T22:14:18.369Z,1.98
2023-10-21T22:19:21.935Z,1.35
2023-10-21T22:24:25.304Z,1.90
2023-10-21T22:29:31.057Z,2.00
2023-10-21T22:34:34.995Z,1.77
2023-10-21T22:39:38.723Z,2.20
2023-10-21T22:44:42.539Z,3.58
2023-10-21T22:49:45.777Z,3.10
2023-10-21T22:54:48.762Z,1.88
2023-10-21T22:59:56.494Z,1.95
2023-10-21T23:04:59.706Z,1.80
2023-10-21T23:10:10.006Z,1.83
2023-10-21T23:15:16.354Z,1.75
2023-10-21T23:20:19.986Z,3.38
2023-10-21T23:25:23.186Z,2.67
2023-10-21T23:30:28.437Z,2.03
2023-10-21T23:35:31.548Z,3.72
2023-10-21T23:40:36.004Z,2.85
2023-10-21T23:45:39.108Z,2.55
2023-10-21T23:50:42.340Z,2.65
2023-10-21T23:55:45.494Z,2.22
